VHHH/HKG METAR and TAF weather

Enter ICAO airport designator
Station Type Date Time Source
VHHH METAR 2019/10/23 03:00 UTC NOAA

VHHH 230300Z 12010KT 080V150 9999 FEW026 28/18 Q1012 NOSIG


Station Type Date Time Source
VHHH Decoded METAR 2019/10/23 03:00 UTC NOAA

Hong Kong Inter-National Airport, Hong Kong (VHHH) 22-20N 114-11E 24M
Oct 22, 2019 - 11:00 PM EDT / 2019.10.23 0300 UTC
Wind: from the ESE (120 degrees) at 12 MPH (10 KT) (direction variable):0
Visibility: greater than 7 mile(s):0
Sky conditions: mostly clear
Temperature: 82 F (28 C)
Dew Point: 64 F (18 C)
Relative Humidity: 54%
Pressure (altimeter): 29.88 in. Hg (1012 hPa)
ob: VHHH 230300Z 12010KT 080V150 9999 FEW026 28/18 Q1012 NOSIG
cycle: 3

Station Type Date Time Source
VHHH TAF 2019/10/22 18:21 UTC NOAA

TAF TAF VHHH 221700Z 2218/2324 11010KT 9999 FEW035 TX29/2306Z TN23/2222Z TN23/2322Z
TEMPO 2306/2309 27010KT
TEMPO 2315/2324 04010KT

Example: see airport list